Terminal Aerodrome Forecast
Issued by NWS

Home | Current Version | Previous Version | Text Only | Print | Product List | Glossary On
Versions: 1 2 3 4 5 6 7 8 9 10 11 12 13 14 15
000
FTUS42 KTAE 231246 AAA
TAFVLD
TAF AMD
KVLD 231246Z 2313/2412 21003KT P6SM VCSH SCT007 BKN015 OVC100
      TEMPO 2313/2315 3SM RA BKN007
     FM231700 23011G17KT 4SM RA VCTS BKN015CB
     FM240000 21010KT P6SM -RA SCT025 OVC050
     FM240900 19006KT 5SM RA VCTS BKN015CB=

USA.gov is the U.S. government's official web portal to all federal, state and local government web resources and services.